createdAt,value
2019-03-06T00:00:52.283Z,12.50
2019-03-06T00:03:59.408Z,10.80
2019-03-06T00:07:04.737Z,8.97
2019-03-06T00:10:23.537Z,10.27
2019-03-06T00:13:28.805Z,9.80
2019-03-06T00:16:34.092Z,12.67
2019-03-06T00:19:39.493Z,11.73
2019-03-06T00:22:44.720Z,10.83
2019-03-06T00:25:50.037Z,11.23
2019-03-06T00:28:55.259Z,8.63
2019-03-06T00:32:00.541Z,13.60
2019-03-06T00:35:10.034Z,11.90
2019-03-06T00:38:15.473Z,13.93
2019-03-06T00:41:39.730Z,10.37
2019-03-06T00:44:46.698Z,10.60
2019-03-06T00:47:52.100Z,9.57
2019-03-06T00:50:59.650Z,11.93
2019-03-06T00:54:05.063Z,15.60
2019-03-06T00:57:10.295Z,12.27
2019-03-06T01:00:15.878Z,8.27
2019-03-06T01:03:21.419Z,7.37
2019-03-06T01:06:27.774Z,11.43
2019-03-06T01:09:33.145Z,12.13
2019-03-06T01:12:41.245Z,13.23
2019-03-06T01:15:46.687Z,11.00
2019-03-06T01:18:52.903Z,11.93
2019-03-06T01:21:59.833Z,13.73
2019-03-06T01:25:09.402Z,9.73
2019-03-06T01:28:14.763Z,16.20
2019-03-06T01:31:20.144Z,10.00
2019-03-06T01:34:44.318Z,13.83
2019-03-06T01:38:10.983Z,13.87
2019-03-06T01:41:24.079Z,12.67
2019-03-06T01:44:37.001Z,11.13
2019-03-06T01:47:42.438Z,8.63
2019-03-06T01:50:47.867Z,11.20
2019-03-06T01:53:53.154Z,11.87
2019-03-06T01:56:58.562Z,15.03
2019-03-06T02:00:03.768Z,9.93
2019-03-06T02:03:10.775Z,10.87
2019-03-06T02:06:16.059Z,8.23
2019-03-06T02:09:21.503Z,8.93
2019-03-06T02:12:26.744Z,17.10
2019-03-06T02:15:32.147Z,9.97
2019-03-06T02:18:37.378Z,8.17
2019-03-06T02:21:42.652Z,11.50
2019-03-06T02:24:47.923Z,9.17
2019-03-06T02:27:53.262Z,11.10
2019-03-06T02:30:58.678Z,8.83
2019-03-06T02:34:03.967Z,9.50
2019-03-06T02:37:09.244Z,10.53
2019-03-06T02:40:16.372Z,10.77
2019-03-06T02:43:21.661Z,11.87
2019-03-06T02:46:27.283Z,11.37
2019-03-06T02:49:32.496Z,11.20
2019-03-06T02:52:37.749Z,11.37
2019-03-06T02:55:43.072Z,10.30
2019-03-06T02:58:59.513Z,9.70
2019-03-06T03:02:36.084Z,13.37
2019-03-06T03:05:47.388Z,16.10
2019-03-06T03:08:52.833Z,14.17
2019-03-06T03:11:58.653Z,17.90
2019-03-06T03:15:04.142Z,16.07
2019-03-06T03:18:09.857Z,14.40
2019-03-06T03:21:16.268Z,10.77
2019-03-06T03:24:21.540Z,13.83
2019-03-06T03:27:26.809Z,12.93
2019-03-06T03:30:32.193Z,14.40
2019-03-06T03:33:37.539Z,15.03
2019-03-06T03:36:42.857Z,11.23
2019-03-06T03:39:48.242Z,19.73
2019-03-06T03:42:53.579Z,16.47
2019-03-06T03:45:58.811Z,13.37
2019-03-06T03:49:04.158Z,11.57
2019-03-06T03:52:10.269Z,15.07
2019-03-06T03:55:15.666Z,13.13
2019-03-06T03:58:20.994Z,15.73
2019-03-06T04:01:26.317Z,17.40
2019-03-06T04:04:31.603Z,12.97
2019-03-06T04:07:36.939Z,12.60
2019-03-06T04:10:42.272Z,11.27
2019-03-06T04:13:47.523Z,11.53
2019-03-06T04:16:52.924Z,11.40
2019-03-06T04:20:00.339Z,10.80
2019-03-06T04:23:05.332Z,16.87
2019-03-06T04:26:10.977Z,11.93
2019-03-06T04:29:16.353Z,14.57
2019-03-06T04:32:21.682Z,13.53
2019-03-06T04:35:26.941Z,12.27
2019-03-06T04:38:32.153Z,10.60
2019-03-06T04:41:37.388Z,13.93
2019-03-06T04:44:43.520Z,10.80
2019-03-06T04:47:48.821Z,12.23
2019-03-06T04:50:55.178Z,12.47
2019-03-06T04:54:00.518Z,11.03
2019-03-06T04:57:05.797Z,11.90
2019-03-06T05:00:11.878Z,10.87
2019-03-06T05:03:17.162Z,15.90
2019-03-06T05:06:22.572Z,15.97
2019-03-06T05:09:27.853Z,14.27
2019-03-06T05:12:33.297Z,12.13
2019-03-06T05:15:38.616Z,17.83
2019-03-06T05:18:49.988Z,16.27
2019-03-06T05:21:55.225Z,16.00
2019-03-06T05:25:01.608Z,12.47
2019-03-06T05:28:06.938Z,15.73
2019-03-06T05:31:12.212Z,11.80
2019-03-06T05:34:17.473Z,19.77
2019-03-06T05:38:01.887Z,16.97
2019-03-06T05:41:08.212Z,16.87
2019-03-06T05:44:13.445Z,19.50
2019-03-06T05:47:18.685Z,14.60
2019-03-06T05:50:23.950Z,18.50
2019-03-06T05:53:29.211Z,17.20
2019-03-06T05:56:34.608Z,17.80
2019-03-06T05:59:39.852Z,16.50
2019-03-06T06:02:45.108Z,17.43
2019-03-06T06:05:50.437Z,24.67
2019-03-06T06:08:56.061Z,18.03
2019-03-06T06:12:01.448Z,21.63
2019-03-06T06:15:09.736Z,21.67
2019-03-06T06:18:15.121Z,18.90
2019-03-06T06:21:42.603Z,21.03
2019-03-06T06:24:47.964Z,21.97
2019-03-06T06:27:53.325Z,23.93
2019-03-06T06:30:58.763Z,21.80
2019-03-06T06:34:04.023Z,24.47
2019-03-06T06:37:09.486Z,27.30
2019-03-06T06:40:15.197Z,27.40
2019-03-06T06:43:20.502Z,24.80
2019-03-06T06:46:25.830Z,29.37
2019-03-06T06:49:31.306Z,31.70
2019-03-06T06:53:16.875Z,31.13
2019-03-06T06:56:54.693Z,30.73
2019-03-06T07:00:21.316Z,30.73
2019-03-06T07:04:20.560Z,32.07
2019-03-06T07:08:02.977Z,36.20
2019-03-06T07:11:30.008Z,30.53
2019-03-06T07:14:41.672Z,33.13
2019-03-06T07:17:59.952Z,33.90
2019-03-06T07:21:10.920Z,36.83
2019-03-06T07:24:33.646Z,37.17
2019-03-06T07:27:50.756Z,32.60
2019-03-06T07:31:23.760Z,36.97
2019-03-06T07:34:52.065Z,39.23
2019-03-06T07:38:03.051Z,33.47
2019-03-06T07:41:27.246Z,38.70
2019-03-06T07:45:00.751Z,38.40
2019-03-06T07:48:14.851Z,37.60
2019-03-06T07:51:42.361Z,36.93
2019-03-06T07:55:03.157Z,35.40
2019-03-06T07:58:45.455Z,39.53
2019-03-06T08:02:02.972Z,39.17
2019-03-06T08:05:09.123Z,33.13
2019-03-06T08:08:16.644Z,37.00
2019-03-06T08:11:39.761Z,35.10
2019-03-06T08:15:10.111Z,35.97
2019-03-06T08:18:34.272Z,38.23
2019-03-06T08:21:49.304Z,33.67
2019-03-06T08:25:02.060Z,37.30
2019-03-06T08:28:08.501Z,33.43
2019-03-06T08:31:38.009Z,31.43
2019-03-06T08:34:44.275Z,33.70
2019-03-06T08:37:49.676Z,27.43
2019-03-06T08:41:03.896Z,35.27
2019-03-06T08:44:01.972Z,27.33
2019-03-06T08:47:32.205Z,28.30
2019-03-06T08:50:49.871Z,28.83
2019-03-06T08:54:03.254Z,29.30
2019-03-06T08:57:19.445Z,31.10
2019-03-06T09:01:02.297Z,28.90
2019-03-06T09:04:45.178Z,23.97
2019-03-06T09:08:08.231Z,32.30
2019-03-06T09:11:30.320Z,26.23
2019-03-06T09:15:06.959Z,27.00
2019-03-06T09:18:29.763Z,26.13
2019-03-06T09:21:57.001Z,25.43
2019-03-06T09:25:11.395Z,23.77
2019-03-06T09:28:22.724Z,22.50
2019-03-06T09:31:53.989Z,24.23
2019-03-06T09:35:21.255Z,24.80
2019-03-06T09:38:45.309Z,25.13
2019-03-06T09:42:02.942Z,23.03
2019-03-06T09:45:16.800Z,24.77
2019-03-06T09:48:41.194Z,21.93
2019-03-06T09:52:08.676Z,18.80
2019-03-06T09:55:43.522Z,20.67
2019-03-06T09:59:12.050Z,16.73
2019-03-06T10:02:33.585Z,16.37
2019-03-06T10:05:53.003Z,17.87
2019-03-06T10:09:06.032Z,17.37
2019-03-06T10:12:25.826Z,16.80
2019-03-06T10:15:49.069Z,15.87
2019-03-06T10:19:13.572Z,18.83
2019-03-06T10:22:18.922Z,16.20
2019-03-06T10:25:30.113Z,16.63
2019-03-06T10:28:31.490Z,13.87
2019-03-06T10:31:38.596Z,12.40
2019-03-06T10:34:43.678Z,13.87
2019-03-06T10:37:48.986Z,14.53
2019-03-06T10:40:54.345Z,11.57
2019-03-06T10:44:03.069Z,13.13
2019-03-06T10:47:08.451Z,10.43
2019-03-06T10:50:16.110Z,16.27
2019-03-06T10:53:21.610Z,11.07
2019-03-06T10:56:27.087Z,14.70
2019-03-06T10:59:32.412Z,10.80
2019-03-06T11:02:37.736Z,9.80
2019-03-06T11:05:43.092Z,8.83
2019-03-06T11:08:48.855Z,9.00
2019-03-06T11:11:54.869Z,9.30
2019-03-06T11:15:01.131Z,9.27
2019-03-06T11:18:06.520Z,13.90
2019-03-06T11:21:11.952Z,12.10
2019-03-06T11:24:17.277Z,10.63
2019-03-06T11:27:22.632Z,9.17
2019-03-06T11:30:43.844Z,7.63
2019-03-06T11:33:49.212Z,6.93
2019-03-06T11:36:54.694Z,14.23
2019-03-06T11:40:00.328Z,9.13
2019-03-06T11:43:06.733Z,10.33
2019-03-06T11:46:15.864Z,7.10
2019-03-06T11:49:20.817Z,8.43
2019-03-06T11:52:26.141Z,10.33
2019-03-06T11:55:31.765Z,7.93
2019-03-06T11:58:37.159Z,6.03
2019-03-06T12:01:47.833Z,9.80
2019-03-06T12:04:50.751Z,9.80
2019-03-06T12:07:56.064Z,7.33
2019-03-06T12:11:01.489Z,8.20
2019-03-06T12:14:07.140Z,6.67
2019-03-06T12:17:13.179Z,7.40
2019-03-06T12:20:18.511Z,7.03
2019-03-06T12:23:24.150Z,8.60
2019-03-06T12:26:29.798Z,6.97
2019-03-06T12:29:35.109Z,5.73
2019-03-06T12:32:40.510Z,6.70
2019-03-06T12:35:45.754Z,11.10
2019-03-06T12:38:51.244Z,7.47
2019-03-06T12:41:56.545Z,6.50
2019-03-06T12:45:01.786Z,7.13
2019-03-06T12:48:08.759Z,7.37
2019-03-06T12:51:14.134Z,7.50
2019-03-06T12:54:19.754Z,7.00
2019-03-06T12:57:25.939Z,6.70
2019-03-06T13:00:31.225Z,10.30
2019-03-06T13:03:36.516Z,7.33
2019-03-06T13:06:41.777Z,6.20
2019-03-06T13:09:47.124Z,8.03
2019-03-06T13:12:52.484Z,6.93
2019-03-06T13:15:57.774Z,6.57
2019-03-06T13:19:03.275Z,5.00
2019-03-06T13:22:12.199Z,7.47
2019-03-06T13:25:20.514Z,5.80
2019-03-06T13:28:25.773Z,5.97
2019-03-06T13:31:31.028Z,8.50
2019-03-06T13:34:50.917Z,4.57
2019-03-06T13:37:56.218Z,4.70
2019-03-06T13:41:02.543Z,7.03
2019-03-06T13:44:07.869Z,5.93
2019-03-06T13:47:13.195Z,4.57
2019-03-06T13:50:18.604Z,6.97
2019-03-06T13:53:23.928Z,4.33
2019-03-06T13:56:42.534Z,5.77
2019-03-06T13:59:47.939Z,7.37
2019-03-06T14:02:58.334Z,6.00
2019-03-06T14:06:04.027Z,6.70
2019-03-06T14:09:11.696Z,13.53
2019-03-06T14:12:17.019Z,6.47
2019-03-06T14:15:24.366Z,6.90
2019-03-06T14:18:29.714Z,5.97
2019-03-06T14:21:35.034Z,4.60
2019-03-06T14:24:40.290Z,4.93
2019-03-06T14:27:47.207Z,4.40
2019-03-06T14:30:52.809Z,3.90
2019-03-06T14:33:58.156Z,4.33
2019-03-06T14:37:03.823Z,5.27
2019-03-06T14:40:14.394Z,5.97
2019-03-06T14:43:20.832Z,7.10
2019-03-06T14:46:26.203Z,6.27
2019-03-06T14:49:31.490Z,3.83
2019-03-06T14:52:36.869Z,6.63
2019-03-06T14:55:42.278Z,3.97
2019-03-06T14:58:47.616Z,5.00
2019-03-06T15:01:52.951Z,5.93
2019-03-06T15:04:58.299Z,9.13
2019-03-06T15:08:05.583Z,6.93
2019-03-06T15:11:12.878Z,4.57
2019-03-06T15:14:18.127Z,8.93
2019-03-06T15:17:25.672Z,3.13
2019-03-06T15:20:31.103Z,6.60
2019-03-06T15:23:36.607Z,5.80
2019-03-06T15:26:42.156Z,3.80
2019-03-06T15:29:47.497Z,6.20
2019-03-06T15:32:52.943Z,3.60
2019-03-06T15:35:58.628Z,4.60
2019-03-06T15:39:04.922Z,4.00
2019-03-06T15:42:13.491Z,4.57
2019-03-06T15:45:21.640Z,7.80
2019-03-06T15:48:27.015Z,5.73
2019-03-06T15:51:34.598Z,6.47
2019-03-06T15:54:40.034Z,4.50
2019-03-06T15:57:45.382Z,8.17
2019-03-06T16:00:51.000Z,6.00
2019-03-06T16:03:56.476Z,8.93
2019-03-06T16:07:01.866Z,4.23
2019-03-06T16:10:07.581Z,4.80
2019-03-06T16:13:13.016Z,7.73
2019-03-06T16:16:19.333Z,4.20
2019-03-06T16:19:24.969Z,6.20
2019-03-06T16:22:30.296Z,6.17
2019-03-06T16:25:37.943Z,6.60
2019-03-06T16:28:42.750Z,6.20
2019-03-06T16:31:48.190Z,6.10
2019-03-06T16:34:55.156Z,8.70
2019-03-06T16:38:02.556Z,4.23
2019-03-06T16:41:08.390Z,9.07
2019-03-06T16:44:13.743Z,4.33
2019-03-06T16:47:19.080Z,5.20
2019-03-06T16:50:26.217Z,7.73
2019-03-06T16:53:31.644Z,4.73
2019-03-06T16:56:37.064Z,5.53
2019-03-06T16:59:42.461Z,5.70
2019-03-06T17:02:48.209Z,4.63
2019-03-06T17:05:54.689Z,4.50
2019-03-06T17:09:00.048Z,4.60
2019-03-06T17:12:05.608Z,4.40
2019-03-06T17:15:11.914Z,6.73
2019-03-06T17:18:17.264Z,4.60
2019-03-06T17:21:22.599Z,4.60
2019-03-06T17:24:28.070Z,4.20
2019-03-06T17:27:33.431Z,3.80
2019-03-06T17:30:42.344Z,5.00
2019-03-06T17:33:47.778Z,3.70
2019-03-06T17:36:53.273Z,4.60
2019-03-06T17:39:58.615Z,3.57
2019-03-06T17:43:04.663Z,3.13
2019-03-06T17:46:10.308Z,2.80
2019-03-06T17:49:15.652Z,3.43
2019-03-06T17:52:21.010Z,3.40
2019-03-06T17:55:26.590Z,2.63
2019-03-06T17:58:31.991Z,8.53
2019-03-06T18:01:37.490Z,4.60
2019-03-06T18:04:43.007Z,3.93
2019-03-06T18:07:48.337Z,5.47
2019-03-06T18:10:54.702Z,4.20
2019-03-06T18:14:00.063Z,3.33
2019-03-06T18:17:09.488Z,4.80
2019-03-06T18:20:15.553Z,10.17
2019-03-06T18:23:20.827Z,8.83
2019-03-06T18:26:26.483Z,3.07
2019-03-06T18:29:31.879Z,5.30
2019-03-06T18:32:37.354Z,5.10
2019-03-06T18:35:42.815Z,4.70
2019-03-06T18:38:48.228Z,4.03
2019-03-06T18:41:53.619Z,3.50
2019-03-06T18:44:59.015Z,3.13
2019-03-06T18:48:04.757Z,4.20
2019-03-06T18:51:10.016Z,6.20
2019-03-06T18:54:15.526Z,5.43
2019-03-06T18:57:20.912Z,7.53
2019-03-06T19:00:28.015Z,2.93
2019-03-06T19:03:35.811Z,6.90
2019-03-06T19:06:42.255Z,5.73
2019-03-06T19:09:47.983Z,3.30
2019-03-06T19:12:54.409Z,4.60
2019-03-06T19:15:59.817Z,3.30
2019-03-06T19:19:05.500Z,3.87
2019-03-06T19:22:11.009Z,5.50
2019-03-06T19:25:17.813Z,5.47
2019-03-06T19:28:23.614Z,4.10
2019-03-06T19:31:28.849Z,5.50
2019-03-06T19:34:34.284Z,4.90
2019-03-06T19:37:39.671Z,5.43
2019-03-06T19:40:45.059Z,6.17
2019-03-06T19:43:50.467Z,5.03
2019-03-06T19:46:55.948Z,3.80
2019-03-06T19:50:01.409Z,3.40
2019-03-06T19:53:06.749Z,4.63
2019-03-06T19:56:13.641Z,5.20
2019-03-06T19:59:18.994Z,4.23
2019-03-06T20:02:24.396Z,4.47
2019-03-06T20:05:35.245Z,3.27
2019-03-06T20:08:41.398Z,3.53
2019-03-06T20:11:46.821Z,5.17
2019-03-06T20:14:52.288Z,6.13
2019-03-06T20:17:57.698Z,10.20
2019-03-06T20:21:03.117Z,5.90
2019-03-06T20:24:09.852Z,3.07
2019-03-06T20:27:15.339Z,7.00
2019-03-06T20:30:21.633Z,4.90
2019-03-06T20:33:27.018Z,4.80
2019-03-06T20:36:32.353Z,4.30
2019-03-06T20:39:37.709Z,3.57
2019-03-06T20:42:43.090Z,5.07
2019-03-06T20:45:48.571Z,4.90
2019-03-06T20:48:54.137Z,10.03
2019-03-06T20:52:00.515Z,4.70
2019-03-06T20:55:06.381Z,4.03
2019-03-06T20:58:11.764Z,5.70
2019-03-06T21:01:17.115Z,4.53
2019-03-06T21:04:22.455Z,5.00
2019-03-06T21:07:27.768Z,4.27
2019-03-06T21:10:33.118Z,7.47
2019-03-06T21:13:38.489Z,3.77
2019-03-06T21:16:43.811Z,2.57
2019-03-06T21:19:49.178Z,4.43
2019-03-06T21:22:56.737Z,5.33
2019-03-06T21:26:02.158Z,7.63
2019-03-06T21:29:10.306Z,3.70
2019-03-06T21:32:15.706Z,4.03
2019-03-06T21:35:22.206Z,5.30
2019-03-06T21:38:27.544Z,5.30
2019-03-06T21:41:32.898Z,3.20
2019-03-06T21:44:38.247Z,7.13
2019-03-06T21:47:43.661Z,4.43
2019-03-06T21:50:49.153Z,3.43
2019-03-06T21:53:54.526Z,4.40
2019-03-06T21:56:59.883Z,4.20
2019-03-06T22:00:05.887Z,3.90
2019-03-06T22:03:11.677Z,5.87
2019-03-06T22:06:17.819Z,4.53
2019-03-06T22:09:23.387Z,5.83
2019-03-06T22:12:28.726Z,6.27
2019-03-06T22:15:34.398Z,6.30
2019-03-06T22:18:39.747Z,3.33
2019-03-06T22:21:46.317Z,5.50
2019-03-06T22:24:51.641Z,5.30
2019-03-06T22:27:57.088Z,5.33
2019-03-06T22:31:02.403Z,7.60
2019-03-06T22:34:07.752Z,3.83
2019-03-06T22:37:13.207Z,5.83
2019-03-06T22:40:18.593Z,7.03
2019-03-06T22:43:23.966Z,4.63
2019-03-06T22:46:29.290Z,4.80
2019-03-06T22:49:34.606Z,4.13
2019-03-06T22:52:39.915Z,3.90
2019-03-06T22:55:45.605Z,5.57
2019-03-06T22:58:50.966Z,7.67
2019-03-06T23:01:56.576Z,6.13
2019-03-06T23:05:01.895Z,5.73
2019-03-06T23:08:07.326Z,6.83
2019-03-06T23:11:12.594Z,10.60
2019-03-06T23:14:19.940Z,8.17
2019-03-06T23:17:24.963Z,4.13
2019-03-06T23:20:32.672Z,8.80
2019-03-06T23:23:37.905Z,5.87
2019-03-06T23:26:43.391Z,5.50
2019-03-06T23:29:49.090Z,4.70
2019-03-06T23:32:55.445Z,6.27
2019-03-06T23:36:00.758Z,4.50
2019-03-06T23:39:08.422Z,6.37
2019-03-06T23:42:14.202Z,6.70
2019-03-06T23:45:19.556Z,7.73
2019-03-06T23:48:24.892Z,7.13
2019-03-06T23:51:49.066Z,10.17
2019-03-06T23:54:54.379Z,7.17
2019-03-06T23:57:59.694Z,7.33
